Main page
METAR-TAF:

METAR-TAF

Airports :

Jacarepaguá Airport

Rio de Janeiro, Rio de Janeiro, Brazil

latitude: 22-59S, longitude: 043-22W, elevation: 3 m

Current weather observation

The report was made 24 minutes ago, at 16:00 UTC
Wind 2 kt from the Southeast
Temperature 24°C
Humidity 74%
Pressure 1019 hPa
Visibility 10 km or more
Few clouds at a height of 2000 ft
Broken clouds at a height of 3500 ft
Broken clouds at a height of 8000 ft

METAR: SBJR 221600Z 13002KT 9999 FEW020 BKN035 BKN080 24/19 Q1019

Time: 13:24 (16:24 UTC)


TAF: missing

Weather observations and forecasts of more than 4000 airports (METAR and TAF reports).

The available stations are represented by yellow and red dots on the map.

Hover mouse over dot to see the name of the station.

Then click to see weather observations and forecasts.

To change the map : click on the green buttons with a black cross to zoom in, on the green button with a dash to zoom out, or on the green arrows for adjacent maps.


METAR-TAF: